sensor_id;sensor_type;location;lat;lon;timestamp;temperature;humidity
65239;SHT30;51827;51.186;6.926;2022-09-14T00:00:30;22.94;70.06
65239;SHT30;51827;51.186;6.926;2022-09-14T00:01:34;22.95;70.05
65239;SHT30;51827;51.186;6.926;2022-09-14T00:02:34;22.94;70.10
65239;SHT30;51827;51.186;6.926;2022-09-14T00:03:35;22.94;70.10
65239;SHT30;51827;51.186;6.926;2022-09-14T00:04:35;22.92;70.07
65239;SHT30;51827;51.186;6.926;2022-09-14T00:05:35;22.92;70.05
65239;SHT30;51827;51.186;6.926;2022-09-14T00:06:36;22.94;70.04
65239;SHT30;51827;51.186;6.926;2022-09-14T00:07:37;22.94;70.07
65239;SHT30;51827;51.186;6.926;2022-09-14T00:08:38;22.92;70.00
65239;SHT30;51827;51.186;6.926;2022-09-14T00:09:41;22.94;70.12
65239;SHT30;51827;51.186;6.926;2022-09-14T00:10:45;22.92;70.06
65239;SHT30;51827;51.186;6.926;2022-09-14T00:11:46;22.91;70.05
65239;SHT30;51827;51.186;6.926;2022-09-14T00:12:47;22.92;70.07
65239;SHT30;51827;51.186;6.926;2022-09-14T00:13:47;22.92;70.04
65239;SHT30;51827;51.186;6.926;2022-09-14T00:14:48;22.91;70.06
65239;SHT30;51827;51.186;6.926;2022-09-14T00:15:48;22.92;70.05
65239;SHT30;51827;51.186;6.926;2022-09-14T00:16:48;22.91;70.07
65239;SHT30;51827;51.186;6.926;2022-09-14T00:17:49;22.92;70.03
65239;SHT30;51827;51.186;6.926;2022-09-14T00:18:54;22.92;69.97
65239;SHT30;51827;51.186;6.926;2022-09-14T00:19:54;22.91;70.00
65239;SHT30;51827;51.186;6.926;2022-09-14T00:20:59;22.91;69.95
65239;SHT30;51827;51.186;6.926;2022-09-14T00:21:59;22.89;69.98
65239;SHT30;51827;51.186;6.926;2022-09-14T00:23:00;22.91;69.97
65239;SHT30;51827;51.186;6.926;2022-09-14T00:24:01;22.91;70.00
65239;SHT30;51827;51.186;6.926;2022-09-14T00:25:02;22.88;69.92
65239;SHT30;51827;51.186;6.926;2022-09-14T00:26:08;22.94;69.86
65239;SHT30;51827;51.186;6.926;2022-09-14T00:27:09;22.91;69.90
65239;SHT30;51827;51.186;6.926;2022-09-14T00:28:09;22.91;69.92
65239;SHT30;51827;51.186;6.926;2022-09-14T00:29:10;22.89;69.90
65239;SHT30;51827;51.186;6.926;2022-09-14T00:30:10;22.89;69.88
65239;SHT30;51827;51.186;6.926;2022-09-14T00:31:11;22.89;69.85
65239;SHT30;51827;51.186;6.926;2022-09-14T00:32:11;22.89;69.90
65239;SHT30;51827;51.186;6.926;2022-09-14T00:33:11;22.89;69.95
65239;SHT30;51827;51.186;6.926;2022-09-14T00:34:14;22.91;69.89
65239;SHT30;51827;51.186;6.926;2022-09-14T00:35:15;22.89;69.85
65239;SHT30;51827;51.186;6.926;2022-09-14T00:36:23;22.89;69.88
65239;SHT30;51827;51.186;6.926;2022-09-14T00:37:24;22.88;69.87
65239;SHT30;51827;51.186;6.926;2022-09-14T00:38:25;22.88;69.88
65239;SHT30;51827;51.186;6.926;2022-09-14T00:39:25;22.88;69.87
65239;SHT30;51827;51.186;6.926;2022-09-14T00:40:26;22.88;69.78
65239;SHT30;51827;51.186;6.926;2022-09-14T00:41:30;22.88;69.81
65239;SHT30;51827;51.186;6.926;2022-09-14T00:42:31;22.86;69.79
65239;SHT30;51827;51.186;6.926;2022-09-14T00:43:32;22.85;69.80
65239;SHT30;51827;51.186;6.926;2022-09-14T00:45:32;22.88;69.79
65239;SHT30;51827;51.186;6.926;2022-09-14T00:47:41;22.88;69.77
65239;SHT30;51827;51.186;6.926;2022-09-14T00:48:41;22.86;69.78
65239;SHT30;51827;51.186;6.926;2022-09-14T00:49:42;22.89;69.73
65239;SHT30;51827;51.186;6.926;2022-09-14T00:50:43;22.88;69.74
65239;SHT30;51827;51.186;6.926;2022-09-14T00:52:55;22.88;69.70
65239;SHT30;51827;51.186;6.926;2022-09-14T00:53:55;22.88;69.64
65239;SHT30;51827;51.186;6.926;2022-09-14T00:54:58;22.89;69.57
65239;SHT30;51827;51.186;6.926;2022-09-14T00:55:59;22.86;69.59
65239;SHT30;51827;51.186;6.926;2022-09-14T00:57:01;22.88;69.59
65239;SHT30;51827;51.186;6.926;2022-09-14T00:58:04;22.86;69.49
65239;SHT30;51827;51.186;6.926;2022-09-14T00:59:09;22.88;69.48
65239;SHT30;51827;51.186;6.926;2022-09-14T01:00:14;22.89;69.44
65239;SHT30;51827;51.186;6.926;2022-09-14T01:01:15;22.85;69.43
65239;SHT30;51827;51.186;6.926;2022-09-14T01:02:17;22.86;69.37
65239;SHT30;51827;51.186;6.926;2022-09-14T01:03:17;22.85;69.42
65239;SHT30;51827;51.186;6.926;2022-09-14T01:04:18;22.85;69.32
65239;SHT30;51827;51.186;6.926;2022-09-14T01:05:23;22.85;69.34
65239;SHT30;51827;51.186;6.926;2022-09-14T01:06:35;22.86;69.30
65239;SHT30;51827;51.186;6.926;2022-09-14T01:07:51;22.86;69.28
65239;SHT30;51827;51.186;6.926;2022-09-14T01:16:05;22.84;69.00
65239;SHT30;51827;51.186;6.926;2022-09-14T01:17:14;22.84;68.92
65239;SHT30;51827;51.186;6.926;2022-09-14T01:18:21;22.82;68.86
65239;SHT30;51827;51.186;6.926;2022-09-14T01:21:00;22.85;68.80
65239;SHT30;51827;51.186;6.926;2022-09-14T01:22:13;22.84;68.74
65239;SHT30;51827;51.186;6.926;2022-09-14T01:24:44;22.82;68.70
65239;SHT30;51827;51.186;6.926;2022-09-14T01:30:11;22.81;68.59
65239;SHT30;51827;51.186;6.926;2022-09-14T01:31:20;22.81;68.62
65239;SHT30;51827;51.186;6.926;2022-09-14T01:33:00;22.79;68.62
65239;SHT30;51827;51.186;6.926;2022-09-14T01:34:12;22.81;68.62
65239;SHT30;51827;51.186;6.926;2022-09-14T01:35:22;22.78;68.62
65239;SHT30;51827;51.186;6.926;2022-09-14T01:36:26;22.79;68.56
65239;SHT30;51827;51.186;6.926;2022-09-14T01:37:42;22.79;68.57
65239;SHT30;51827;51.186;6.926;2022-09-14T01:38:46;22.78;68.60
65239;SHT30;51827;51.186;6.926;2022-09-14T01:39:51;22.78;68.52
65239;SHT30;51827;51.186;6.926;2022-09-14T01:40:53;22.78;68.54
65239;SHT30;51827;51.186;6.926;2022-09-14T01:41:55;22.76;68.51
65239;SHT30;51827;51.186;6.926;2022-09-14T01:43:07;22.79;68.47
65239;SHT30;51827;51.186;6.926;2022-09-14T01:44:14;22.81;68.42
65239;SHT30;51827;51.186;6.926;2022-09-14T01:45:16;22.79;68.42
65239;SHT30;51827;51.186;6.926;2022-09-14T01:46:29;22.78;68.41
65239;SHT30;51827;51.186;6.926;2022-09-14T01:47:36;22.76;68.35
65239;SHT30;51827;51.186;6.926;2022-09-14T01:48:41;22.78;68.39
65239;SHT30;51827;51.186;6.926;2022-09-14T01:49:48;22.76;68.39
65239;SHT30;51827;51.186;6.926;2022-09-14T01:50:55;22.76;68.37
65239;SHT30;51827;51.186;6.926;2022-09-14T01:52:19;22.76;68.30
65239;SHT30;51827;51.186;6.926;2022-09-14T01:53:31;22.78;68.26
65239;SHT30;51827;51.186;6.926;2022-09-14T01:54:46;22.76;68.21
65239;SHT30;51827;51.186;6.926;2022-09-14T01:55:56;22.76;68.26
65239;SHT30;51827;51.186;6.926;2022-09-14T01:57:22;22.75;68.28
65239;SHT30;51827;51.186;6.926;2022-09-14T01:58:32;22.76;68.24
65239;SHT30;51827;51.186;6.926;2022-09-14T01:59:43;22.75;68.22
65239;SHT30;51827;51.186;6.926;2022-09-14T02:00:45;22.73;68.25
65239;SHT30;51827;51.186;6.926;2022-09-14T02:01:54;22.75;68.24
65239;SHT30;51827;51.186;6.926;2022-09-14T02:04:01;22.73;68.20
65239;SHT30;51827;51.186;6.926;2022-09-14T02:06:23;22.75;68.15
65239;SHT30;51827;51.186;6.926;2022-09-14T02:07:23;22.75;68.13
65239;SHT30;51827;51.186;6.926;2022-09-14T02:08:26;22.73;68.16
65239;SHT30;51827;51.186;6.926;2022-09-14T02:09:28;22.72;68.18
65239;SHT30;51827;51.186;6.926;2022-09-14T02:10:28;22.72;68.14
65239;SHT30;51827;51.186;6.926;2022-09-14T02:11:28;22.73;68.13
65239;SHT30;51827;51.186;6.926;2022-09-14T02:12:29;22.75;68.10
65239;SHT30;51827;51.186;6.926;2022-09-14T02:13:29;22.72;68.10
65239;SHT30;51827;51.186;6.926;2022-09-14T02:14:30;22.72;68.11
65239;SHT30;51827;51.186;6.926;2022-09-14T02:15:30;22.75;68.11
65239;SHT30;51827;51.186;6.926;2022-09-14T02:16:31;22.71;68.08
65239;SHT30;51827;51.186;6.926;2022-09-14T02:17:31;22.73;68.10
65239;SHT30;51827;51.186;6.926;2022-09-14T02:18:31;22.72;68.08
65239;SHT30;51827;51.186;6.926;2022-09-14T02:19:36;22.71;68.10
65239;SHT30;51827;51.186;6.926;2022-09-14T02:20:51;22.72;68.06
65239;SHT30;51827;51.186;6.926;2022-09-14T02:21:52;22.72;68.08
65239;SHT30;51827;51.186;6.926;2022-09-14T02:22:53;22.72;68.08
65239;SHT30;51827;51.186;6.926;2022-09-14T02:23:53;22.72;68.09
65239;SHT30;51827;51.186;6.926;2022-09-14T02:24:55;22.71;68.06
65239;SHT30;51827;51.186;6.926;2022-09-14T02:25:55;22.73;68.08
65239;SHT30;51827;51.186;6.926;2022-09-14T02:26:57;22.72;68.11
65239;SHT30;51827;51.186;6.926;2022-09-14T02:27:58;22.71;68.15
65239;SHT30;51827;51.186;6.926;2022-09-14T02:28:58;22.71;68.15
65239;SHT30;51827;51.186;6.926;2022-09-14T02:29:59;22.69;68.19
65239;SHT30;51827;51.186;6.926;2022-09-14T02:31:19;22.71;68.20
65239;SHT30;51827;51.186;6.926;2022-09-14T02:37:58;22.71;68.33
65239;SHT30;51827;51.186;6.926;2022-09-14T02:39:11;22.69;68.32
65239;SHT30;51827;51.186;6.926;2022-09-14T02:40:35;22.68;68.36
65239;SHT30;51827;51.186;6.926;2022-09-14T02:41:44;22.69;68.34
65239;SHT30;51827;51.186;6.926;2022-09-14T02:44:32;22.68;68.36
65239;SHT30;51827;51.186;6.926;2022-09-14T02:47:10;22.68;68.41
65239;SHT30;51827;51.186;6.926;2022-09-14T02:48:31;22.69;68.42
65239;SHT30;51827;51.186;6.926;2022-09-14T02:52:32;22.68;68.39
65239;SHT30;51827;51.186;6.926;2022-09-14T02:54:07;22.66;68.39
65239;SHT30;51827;51.186;6.926;2022-09-14T02:55:13;22.68;68.40
65239;SHT30;51827;51.186;6.926;2022-09-14T02:56:20;22.66;68.35
65239;SHT30;51827;51.186;6.926;2022-09-14T02:57:21;22.66;68.34
65239;SHT30;51827;51.186;6.926;2022-09-14T02:58:21;22.68;68.28
65239;SHT30;51827;51.186;6.926;2022-09-14T02:59:21;22.66;68.32
65239;SHT30;51827;51.186;6.926;2022-09-14T03:00:21;22.66;68.32
65239;SHT30;51827;51.186;6.926;2022-09-14T03:01:23;22.65;68.27
65239;SHT30;51827;51.186;6.926;2022-09-14T03:02:23;22.68;68.23
65239;SHT30;51827;51.186;6.926;2022-09-14T03:03:24;22.65;68.25
65239;SHT30;51827;51.186;6.926;2022-09-14T03:04:27;22.65;68.27
65239;SHT30;51827;51.186;6.926;2022-09-14T03:05:27;22.66;68.24
65239;SHT30;51827;51.186;6.926;2022-09-14T03:06:30;22.64;68.24
65239;SHT30;51827;51.186;6.926;2022-09-14T03:07:30;22.66;68.22
65239;SHT30;51827;51.186;6.926;2022-09-14T03:08:31;22.64;68.18
65239;SHT30;51827;51.186;6.926;2022-09-14T03:09:31;22.66;68.19
65239;SHT30;51827;51.186;6.926;2022-09-14T03:10:35;22.66;68.09
65239;SHT30;51827;51.186;6.926;2022-09-14T03:11:35;22.68;68.06
65239;SHT30;51827;51.186;6.926;2022-09-14T03:12:39;22.66;68.06
65239;SHT30;51827;51.186;6.926;2022-09-14T03:13:40;22.66;68.02
65239;SHT30;51827;51.186;6.926;2022-09-14T03:14:40;22.66;67.99
65239;SHT30;51827;51.186;6.926;2022-09-14T03:15:40;22.65;67.97
65239;SHT30;51827;51.186;6.926;2022-09-14T03:16:40;22.62;68.03
65239;SHT30;51827;51.186;6.926;2022-09-14T03:17:45;22.65;67.94
65239;SHT30;51827;51.186;6.926;2022-09-14T03:18:45;22.62;67.96
65239;SHT30;51827;51.186;6.926;2022-09-14T03:19:56;22.61;67.93
65239;SHT30;51827;51.186;6.926;2022-09-14T03:21:08;22.65;67.92
65239;SHT30;51827;51.186;6.926;2022-09-14T03:22:08;22.64;67.87
65239;SHT30;51827;51.186;6.926;2022-09-14T03:23:09;22.66;67.89
65239;SHT30;51827;51.186;6.926;2022-09-14T03:24:09;22.64;67.86
65239;SHT30;51827;51.186;6.926;2022-09-14T03:25:10;22.64;67.90
65239;SHT30;51827;51.186;6.926;2022-09-14T03:26:13;22.64;67.83
65239;SHT30;51827;51.186;6.926;2022-09-14T03:27:13;22.62;67.84
65239;SHT30;51827;51.186;6.926;2022-09-14T03:28:14;22.62;67.83
65239;SHT30;51827;51.186;6.926;2022-09-14T03:29:14;22.62;67.84
65239;SHT30;51827;51.186;6.926;2022-09-14T03:30:26;22.61;67.85
65239;SHT30;51827;51.186;6.926;2022-09-14T03:31:26;22.61;67.82
65239;SHT30;51827;51.186;6.926;2022-09-14T03:32:26;22.62;67.84
65239;SHT30;51827;51.186;6.926;2022-09-14T03:33:27;22.61;67.84
65239;SHT30;51827;51.186;6.926;2022-09-14T03:34:27;22.62;67.81
65239;SHT30;51827;51.186;6.926;2022-09-14T03:35:28;22.62;67.84
65239;SHT30;51827;51.186;6.926;2022-09-14T03:36:29;22.62;67.81
65239;SHT30;51827;51.186;6.926;2022-09-14T03:37:30;22.62;67.81
65239;SHT30;51827;51.186;6.926;2022-09-14T03:38:30;22.62;67.78
65239;SHT30;51827;51.186;6.926;2022-09-14T03:39:30;22.62;67.79
65239;SHT30;51827;51.186;6.926;2022-09-14T03:40:30;22.64;67.76
65239;SHT30;51827;51.186;6.926;2022-09-14T03:41:33;22.64;67.75
65239;SHT30;51827;51.186;6.926;2022-09-14T03:42:34;22.65;67.72
65239;SHT30;51827;51.186;6.926;2022-09-14T03:43:34;22.66;67.66
65239;SHT30;51827;51.186;6.926;2022-09-14T03:44:35;22.65;67.65
65239;SHT30;51827;51.186;6.926;2022-09-14T03:45:35;22.65;67.67
65239;SHT30;51827;51.186;6.926;2022-09-14T03:46:35;22.65;67.66
65239;SHT30;51827;51.186;6.926;2022-09-14T03:47:39;22.66;67.64
65239;SHT30;51827;51.186;6.926;2022-09-14T03:48:42;22.65;67.61
65239;SHT30;51827;51.186;6.926;2022-09-14T03:49:43;22.66;67.58
65239;SHT30;51827;51.186;6.926;2022-09-14T03:50:43;22.65;67.62
65239;SHT30;51827;51.186;6.926;2022-09-14T03:51:43;22.64;67.65
65239;SHT30;51827;51.186;6.926;2022-09-14T03:52:44;22.68;67.59
65239;SHT30;51827;51.186;6.926;2022-09-14T03:53:44;22.66;67.56
65239;SHT30;51827;51.186;6.926;2022-09-14T03:54:45;22.66;67.53
65239;SHT30;51827;51.186;6.926;2022-09-14T03:55:45;22.66;67.55
65239;SHT30;51827;51.186;6.926;2022-09-14T03:56:52;22.66;67.55
65239;SHT30;51827;51.186;6.926;2022-09-14T03:57:54;22.66;67.48
65239;SHT30;51827;51.186;6.926;2022-09-14T03:58:54;22.66;67.49
65239;SHT30;51827;51.186;6.926;2022-09-14T03:59:54;22.66;67.50
65239;SHT30;51827;51.186;6.926;2022-09-14T04:00:54;22.65;67.46
65239;SHT30;51827;51.186;6.926;2022-09-14T04:01:55;22.66;67.49
65239;SHT30;51827;51.186;6.926;2022-09-14T04:02:55;22.66;67.49
65239;SHT30;51827;51.186;6.926;2022-09-14T04:03:55;22.66;67.46
65239;SHT30;51827;51.186;6.926;2022-09-14T04:04:55;22.66;67.44
65239;SHT30;51827;51.186;6.926;2022-09-14T04:05:57;22.69;67.41
65239;SHT30;51827;51.186;6.926;2022-09-14T04:06:57;22.69;67.42
65239;SHT30;51827;51.186;6.926;2022-09-14T04:07:57;22.69;67.40
65239;SHT30;51827;51.186;6.926;2022-09-14T04:08:58;22.69;67.43
65239;SHT30;51827;51.186;6.926;2022-09-14T04:09:58;22.66;67.42
65239;SHT30;51827;51.186;6.926;2022-09-14T04:10:58;22.71;67.43
65239;SHT30;51827;51.186;6.926;2022-09-14T04:11:59;22.68;67.40
65239;SHT30;51827;51.186;6.926;2022-09-14T04:12:59;22.66;67.44
65239;SHT30;51827;51.186;6.926;2022-09-14T04:14:03;22.68;67.40
65239;SHT30;51827;51.186;6.926;2022-09-14T04:15:05;22.66;67.40
65239;SHT30;51827;51.186;6.926;2022-09-14T04:16:05;22.71;67.39
65239;SHT30;51827;51.186;6.926;2022-09-14T04:17:06;22.69;67.39
65239;SHT30;51827;51.186;6.926;2022-09-14T04:18:06;22.69;67.38
65239;SHT30;51827;51.186;6.926;2022-09-14T04:19:07;22.68;67.38
65239;SHT30;51827;51.186;6.926;2022-09-14T04:20:08;22.68;67.39
65239;SHT30;51827;51.186;6.926;2022-09-14T04:21:17;22.66;67.38
65239;SHT30;51827;51.186;6.926;2022-09-14T04:22:18;22.69;67.40
65239;SHT30;51827;51.186;6.926;2022-09-14T04:23:18;22.66;67.41
65239;SHT30;51827;51.186;6.926;2022-09-14T04:24:18;22.69;67.38
65239;SHT30;51827;51.186;6.926;2022-09-14T04:25:19;22.65;67.37
65239;SHT30;51827;51.186;6.926;2022-09-14T04:26:26;22.66;67.36
65239;SHT30;51827;51.186;6.926;2022-09-14T04:27:26;22.69;67.33
65239;SHT30;51827;51.186;6.926;2022-09-14T04:28:26;22.68;67.37
65239;SHT30;51827;51.186;6.926;2022-09-14T04:29:27;22.68;67.32
65239;SHT30;51827;51.186;6.926;2022-09-14T04:30:27;22.68;67.38
65239;SHT30;51827;51.186;6.926;2022-09-14T04:31:30;22.66;67.34
65239;SHT30;51827;51.186;6.926;2022-09-14T04:32:31;22.66;67.38
65239;SHT30;51827;51.186;6.926;2022-09-14T04:33:32;22.68;67.38
65239;SHT30;51827;51.186;6.926;2022-09-14T04:34:33;22.69;67.38
65239;SHT30;51827;51.186;6.926;2022-09-14T04:35:34;22.68;67.37
65239;SHT30;51827;51.186;6.926;2022-09-14T04:36:34;22.71;67.34
65239;SHT30;51827;51.186;6.926;2022-09-14T04:37:34;22.65;67.36
65239;SHT30;51827;51.186;6.926;2022-09-14T04:38:35;22.65;67.38
65239;SHT30;51827;51.186;6.926;2022-09-14T04:39:42;22.66;67.34
65239;SHT30;51827;51.186;6.926;2022-09-14T04:40:42;22.66;67.39
65239;SHT30;51827;51.186;6.926;2022-09-14T04:41:43;22.68;67.32
65239;SHT30;51827;51.186;6.926;2022-09-14T04:42:43;22.64;67.35
65239;SHT30;51827;51.186;6.926;2022-09-14T04:43:44;22.66;67.34
65239;SHT30;51827;51.186;6.926;2022-09-14T04:44:45;22.68;67.38
65239;SHT30;51827;51.186;6.926;2022-09-14T04:45:45;22.69;67.32
65239;SHT30;51827;51.186;6.926;2022-09-14T04:46:48;22.66;67.29
65239;SHT30;51827;51.186;6.926;2022-09-14T04:47:48;22.68;67.33
65239;SHT30;51827;51.186;6.926;2022-09-14T04:48:49;22.66;67.34
65239;SHT30;51827;51.186;6.926;2022-09-14T04:49:49;22.68;67.33
65239;SHT30;51827;51.186;6.926;2022-09-14T04:50:50;22.68;67.34
65239;SHT30;51827;51.186;6.926;2022-09-14T04:51:59;22.66;67.33
65239;SHT30;51827;51.186;6.926;2022-09-14T04:52:59;22.65;67.40
65239;SHT30;51827;51.186;6.926;2022-09-14T04:54:00;22.65;67.36
65239;SHT30;51827;51.186;6.926;2022-09-14T04:55:01;22.65;67.37
65239;SHT30;51827;51.186;6.926;2022-09-14T04:56:03;22.64;67.38
65239;SHT30;51827;51.186;6.926;2022-09-14T04:57:03;22.65;67.39
65239;SHT30;51827;51.186;6.926;2022-09-14T04:58:04;22.64;67.38
65239;SHT30;51827;51.186;6.926;2022-09-14T04:59:04;22.61;67.42
65239;SHT30;51827;51.186;6.926;2022-09-14T05:00:05;22.62;67.41
65239;SHT30;51827;51.186;6.926;2022-09-14T05:01:08;22.65;67.44
65239;SHT30;51827;51.186;6.926;2022-09-14T05:02:08;22.61;67.44
65239;SHT30;51827;51.186;6.926;2022-09-14T05:03:32;22.62;67.43
65239;SHT30;51827;51.186;6.926;2022-09-14T05:04:32;22.64;67.40
65239;SHT30;51827;51.186;6.926;2022-09-14T05:05:34;22.64;67.38
65239;SHT30;51827;51.186;6.926;2022-09-14T05:06:35;22.64;67.34
65239;SHT30;51827;51.186;6.926;2022-09-14T05:07:35;22.64;67.26
65239;SHT30;51827;51.186;6.926;2022-09-14T05:08:36;22.64;67.17
65239;SHT30;51827;51.186;6.926;2022-09-14T05:09:42;22.62;67.07
65239;SHT30;51827;51.186;6.926;2022-09-14T05:10:42;22.66;67.00
65239;SHT30;51827;51.186;6.926;2022-09-14T05:11:43;22.65;66.96
65239;SHT30;51827;51.186;6.926;2022-09-14T05:12:44;22.64;66.96
65239;SHT30;51827;51.186;6.926;2022-09-14T05:13:44;22.66;66.93
65239;SHT30;51827;51.186;6.926;2022-09-14T05:14:47;22.65;66.86
65239;SHT30;51827;51.186;6.926;2022-09-14T05:15:47;22.66;66.89
65239;SHT30;51827;51.186;6.926;2022-09-14T05:16:47;22.65;66.91
65239;SHT30;51827;51.186;6.926;2022-09-14T05:17:47;22.64;66.86
65239;SHT30;51827;51.186;6.926;2022-09-14T05:18:49;22.64;66.85
65239;SHT30;51827;51.186;6.926;2022-09-14T05:19:56;22.66;66.78
65239;SHT30;51827;51.186;6.926;2022-09-14T05:21:00;22.65;66.79
65239;SHT30;51827;51.186;6.926;2022-09-14T05:22:00;22.68;66.82
65239;SHT30;51827;51.186;6.926;2022-09-14T05:23:00;22.68;66.85
65239;SHT30;51827;51.186;6.926;2022-09-14T05:24:15;22.68;66.90
65239;SHT30;51827;51.186;6.926;2022-09-14T05:25:30;22.68;66.90
65239;SHT30;51827;51.186;6.926;2022-09-14T05:26:31;22.66;66.92
65239;SHT30;51827;51.186;6.926;2022-09-14T05:27:31;22.66;66.94
65239;SHT30;51827;51.186;6.926;2022-09-14T05:28:33;22.65;66.90
65239;SHT30;51827;51.186;6.926;2022-09-14T05:29:33;22.66;66.95
65239;SHT30;51827;51.186;6.926;2022-09-14T05:30:42;22.64;66.97
65239;SHT30;51827;51.186;6.926;2022-09-14T05:31:43;22.65;66.95
65239;SHT30;51827;51.186;6.926;2022-09-14T05:32:44;22.65;66.99
65239;SHT30;51827;51.186;6.926;2022-09-14T05:33:45;22.65;67.00
65239;SHT30;51827;51.186;6.926;2022-09-14T05:34:45;22.65;67.01
65239;SHT30;51827;51.186;6.926;2022-09-14T05:35:49;22.64;67.02
65239;SHT30;51827;51.186;6.926;2022-09-14T05:36:49;22.64;67.02
65239;SHT30;51827;51.186;6.926;2022-09-14T05:37:50;22.64;67.01
65239;SHT30;51827;51.186;6.926;2022-09-14T05:38:50;22.62;67.08
65239;SHT30;51827;51.186;6.926;2022-09-14T05:39:51;22.64;67.04
65239;SHT30;51827;51.186;6.926;2022-09-14T05:40:53;22.64;66.98
65239;SHT30;51827;51.186;6.926;2022-09-14T05:41:53;22.61;67.00
65239;SHT30;51827;51.186;6.926;2022-09-14T05:42:54;22.64;66.98
65239;SHT30;51827;51.186;6.926;2022-09-14T05:43:54;22.64;66.98
65239;SHT30;51827;51.186;6.926;2022-09-14T05:44:54;22.64;66.99
65239;SHT30;51827;51.186;6.926;2022-09-14T05:45:54;22.64;66.94
65239;SHT30;51827;51.186;6.926;2022-09-14T05:46:55;22.66;66.92
65239;SHT30;51827;51.186;6.926;2022-09-14T05:47:59;22.66;66.94
65239;SHT30;51827;51.186;6.926;2022-09-14T05:48:59;22.64;66.92
65239;SHT30;51827;51.186;6.926;2022-09-14T05:50:00;22.65;66.93
65239;SHT30;51827;51.186;6.926;2022-09-14T05:51:02;22.65;66.89
65239;SHT30;51827;51.186;6.926;2022-09-14T05:52:02;22.64;66.92
65239;SHT30;51827;51.186;6.926;2022-09-14T05:53:06;22.61;66.92
65239;SHT30;51827;51.186;6.926;2022-09-14T05:54:06;22.64;66.90
65239;SHT30;51827;51.186;6.926;2022-09-14T05:55:06;22.64;66.90
65239;SHT30;51827;51.186;6.926;2022-09-14T05:56:12;22.65;66.86
65239;SHT30;51827;51.186;6.926;2022-09-14T05:57:13;22.65;66.85
65239;SHT30;51827;51.186;6.926;2022-09-14T05:58:18;22.64;66.88
65239;SHT30;51827;51.186;6.926;2022-09-14T05:59:19;22.64;66.78
65239;SHT30;51827;51.186;6.926;2022-09-14T06:00:19;22.65;66.81
65239;SHT30;51827;51.186;6.926;2022-09-14T06:01:21;22.62;66.83
65239;SHT30;51827;51.186;6.926;2022-09-14T06:02:21;22.62;66.83
65239;SHT30;51827;51.186;6.926;2022-09-14T06:03:30;22.64;66.80
65239;SHT30;51827;51.186;6.926;2022-09-14T06:04:30;22.62;66.76
65239;SHT30;51827;51.186;6.926;2022-09-14T06:05:30;22.62;66.76
65239;SHT30;51827;51.186;6.926;2022-09-14T06:06:31;22.64;66.75
65239;SHT30;51827;51.186;6.926;2022-09-14T06:07:32;22.65;66.72
65239;SHT30;51827;51.186;6.926;2022-09-14T06:08:32;22.62;66.69
65239;SHT30;51827;51.186;6.926;2022-09-14T06:09:33;22.62;66.72
65239;SHT30;51827;51.186;6.926;2022-09-14T06:10:33;22.61;66.72
65239;SHT30;51827;51.186;6.926;2022-09-14T06:11:34;22.64;66.68
65239;SHT30;51827;51.186;6.926;2022-09-14T06:12:34;22.62;66.69
65239;SHT30;51827;51.186;6.926;2022-09-14T06:13:35;22.62;66.66
65239;SHT30;51827;51.186;6.926;2022-09-14T06:14:36;22.59;66.64
65239;SHT30;51827;51.186;6.926;2022-09-14T06:15:36;22.59;66.64
65239;SHT30;51827;51.186;6.926;2022-09-14T06:16:36;22.62;66.65
65239;SHT30;51827;51.186;6.926;2022-09-14T06:17:36;22.65;66.64
65239;SHT30;51827;51.186;6.926;2022-09-14T06:18:38;22.61;66.61
65239;SHT30;51827;51.186;6.926;2022-09-14T06:19:38;22.65;66.57
65239;SHT30;51827;51.186;6.926;2022-09-14T06:20:49;22.62;66.57
65239;SHT30;51827;51.186;6.926;2022-09-14T06:21:49;22.64;66.57
65239;SHT30;51827;51.186;6.926;2022-09-14T06:22:49;22.65;66.56
65239;SHT30;51827;51.186;6.926;2022-09-14T06:23:49;22.62;66.51
65239;SHT30;51827;51.186;6.926;2022-09-14T06:24:50;22.64;66.53
65239;SHT30;51827;51.186;6.926;2022-09-14T06:25:55;22.61;66.54
65239;SHT30;51827;51.186;6.926;2022-09-14T06:26:58;22.62;66.54
65239;SHT30;51827;51.186;6.926;2022-09-14T06:27:58;22.59;66.52
65239;SHT30;51827;51.186;6.926;2022-09-14T06:28:59;22.64;66.46
65239;SHT30;51827;51.186;6.926;2022-09-14T06:29:59;22.62;66.37
65239;SHT30;51827;51.186;6.926;2022-09-14T06:31:00;22.61;66.31
65239;SHT30;51827;51.186;6.926;2022-09-14T06:32:00;22.61;66.33
65239;SHT30;51827;51.186;6.926;2022-09-14T06:33:03;22.61;66.36
65239;SHT30;51827;51.186;6.926;2022-09-14T06:34:04;22.58;66.30
65239;SHT30;51827;51.186;6.926;2022-09-14T06:35:04;22.59;66.30
65239;SHT30;51827;51.186;6.926;2022-09-14T06:36:07;22.58;66.33
65239;SHT30;51827;51.186;6.926;2022-09-14T06:37:16;22.58;66.33
65239;SHT30;51827;51.186;6.926;2022-09-14T06:38:16;22.58;66.39
65239;SHT30;51827;51.186;6.926;2022-09-14T06:39:17;22.58;66.37
65239;SHT30;51827;51.186;6.926;2022-09-14T06:40:17;22.58;66.39
65239;SHT30;51827;51.186;6.926;2022-09-14T06:41:20;22.59;66.37
65239;SHT30;51827;51.186;6.926;2022-09-14T06:42:23;22.56;66.37
65239;SHT30;51827;51.186;6.926;2022-09-14T06:43:24;22.58;66.36
65239;SHT30;51827;51.186;6.926;2022-09-14T06:44:25;22.56;66.34
65239;SHT30;51827;51.186;6.926;2022-09-14T06:45:25;22.56;66.35
65239;SHT30;51827;51.186;6.926;2022-09-14T06:46:30;22.56;66.37
65239;SHT30;51827;51.186;6.926;2022-09-14T06:47:36;22.54;66.33
65239;SHT30;51827;51.186;6.926;2022-09-14T06:48:40;22.58;66.35
65239;SHT30;51827;51.186;6.926;2022-09-14T06:49:41;22.56;66.34
65239;SHT30;51827;51.186;6.926;2022-09-14T06:50:41;22.54;66.37
65239;SHT30;51827;51.186;6.926;2022-09-14T06:51:43;22.56;66.37
65239;SHT30;51827;51.186;6.926;2022-09-14T06:52:44;22.55;66.33
65239;SHT30;51827;51.186;6.926;2022-09-14T06:53:45;22.54;66.40
65239;SHT30;51827;51.186;6.926;2022-09-14T06:54:45;22.55;66.35
65239;SHT30;51827;51.186;6.926;2022-09-14T06:55:46;22.54;66.33
65239;SHT30;51827;51.186;6.926;2022-09-14T06:56:46;22.54;66.32
65239;SHT30;51827;51.186;6.926;2022-09-14T06:57:47;22.56;66.30
65239;SHT30;51827;51.186;6.926;2022-09-14T06:58:47;22.55;66.32
65239;SHT30;51827;51.186;6.926;2022-09-14T06:59:50;22.56;66.30
65239;SHT30;51827;51.186;6.926;2022-09-14T07:00:50;22.54;66.28
65239;SHT30;51827;51.186;6.926;2022-09-14T07:01:51;22.54;66.29
65239;SHT30;51827;51.186;6.926;2022-09-14T07:02:51;22.54;66.30
65239;SHT30;51827;51.186;6.926;2022-09-14T07:03:52;22.54;66.30
65239;SHT30;51827;51.186;6.926;2022-09-14T07:04:52;22.54;66.28
65239;SHT30;51827;51.186;6.926;2022-09-14T07:06:02;22.55;66.24
65239;SHT30;51827;51.186;6.926;2022-09-14T07:07:05;22.52;66.26
65239;SHT30;51827;51.186;6.926;2022-09-14T07:08:06;22.52;66.27